createdAt,value
2022-12-13T00:05:07.418Z,4.17
2022-12-13T00:10:22.231Z,4.17
2022-12-13T00:15:37.114Z,4.18
2022-12-13T00:20:03.258Z,4.18
2022-12-13T00:24:46.432Z,4.17
2022-12-13T00:29:54.789Z,4.17
2022-12-13T00:35:03.252Z,4.09
2022-12-13T00:40:13.008Z,4.09
2022-12-13T00:45:22.816Z,4.14
2022-12-13T00:50:32.519Z,4.14
2022-12-13T00:55:41.670Z,4.14
2022-12-13T01:00:51.454Z,4.13
2022-12-13T01:06:17.803Z,4.13
2022-12-13T01:11:11.552Z,4.14
2022-12-13T01:16:19.657Z,4.14
2022-12-13T01:21:30.107Z,4.13
2022-12-13T01:26:37.008Z,4.13
2022-12-13T01:31:47.438Z,4.15
2022-12-13T01:36:59.145Z,4.15
2022-12-13T01:42:05.627Z,4.18
2022-12-13T01:47:15.412Z,4.18
2022-12-13T01:52:24.525Z,4.12
2022-12-13T01:57:34.287Z,4.12
2022-12-13T02:02:43.396Z,4.13
2022-12-13T02:07:52.152Z,4.13
2022-12-13T02:13:01.649Z,4.1
2022-12-13T02:18:10.114Z,4.1
2022-12-13T02:23:20.511Z,4.09
2022-12-13T02:28:32.580Z,4.09
2022-12-13T02:33:38.983Z,4.08
2022-12-13T02:38:47.878Z,4.08
2022-12-13T02:44:01.895Z,4.14
2022-12-13T02:49:06.137Z,4.14
2022-12-13T02:54:15.876Z,4.01
2022-12-13T02:59:24.350Z,4.01
2022-12-13T03:04:33.496Z,4.05
2022-12-13T03:09:42.627Z,4.05
2022-12-13T03:14:51.077Z,4.1
2022-12-13T03:20:00.821Z,4.1
2022-12-13T03:25:10.609Z,4.06
2022-12-13T03:30:20.344Z,4.06
2022-12-13T03:35:46.341Z,4.12
2022-12-13T03:40:49.436Z,4.12
2022-12-13T03:46:04.979Z,4.02
2022-12-13T03:51:45.465Z,4.02
2022-12-13T03:56:37.497Z,4.1
2022-12-13T04:01:53.442Z,4.04
2022-12-13T04:07:21.743Z,4.04
2022-12-13T04:12:23.828Z,4.05
2022-12-13T04:17:40.125Z,4.05
2022-12-13T04:22:56.182Z,4
2022-12-13T04:28:11.029Z,4
2022-12-13T04:32:27.672Z,3.98
2022-12-13T04:37:15.700Z,3.98
2022-12-13T04:42:25.521Z,3.94
2022-12-13T04:47:33.951Z,3.94
2022-12-13T04:52:43.725Z,4.03
2022-12-13T04:57:53.502Z,4.03
2022-12-13T05:03:01.968Z,3.98
2022-12-13T05:08:12.012Z,3.98
2022-12-13T05:13:20.189Z,3.9
2022-12-13T05:18:29.317Z,3.9
2022-12-13T05:23:38.467Z,3.96
2022-12-13T05:28:46.916Z,3.96
2022-12-13T05:34:01.986Z,3.88
2022-12-13T05:39:03.889Z,3.88
2022-12-13T05:44:13.015Z,3.97
2022-12-13T05:49:22.752Z,3.97
2022-12-13T05:54:32.525Z,3.82
2022-12-13T05:59:42.275Z,3.82
2022-12-13T06:04:51.438Z,3.87
2022-12-13T06:10:11.301Z,3.87
2022-12-13T06:15:23.224Z,3.89
2022-12-13T06:20:25.118Z,3.89
2022-12-13T06:25:32.373Z,3.92
2022-12-13T06:30:43.180Z,3.92
2022-12-13T06:35:46.110Z,3.88
2022-12-13T06:40:54.597Z,3.88
2022-12-13T06:46:05.275Z,3.93
2022-12-13T06:51:33.719Z,3.93
2022-12-13T06:56:23.255Z,3.89
2022-12-13T07:01:38.326Z,3.91
2022-12-13T07:06:40.854Z,3.91
2022-12-13T07:11:52.814Z,3.96
2022-12-13T07:17:04.081Z,3.96
2022-12-13T07:22:06.510Z,3.87
2022-12-13T07:27:14.751Z,3.87
2022-12-13T07:32:23.902Z,3.8
2022-12-13T07:37:34.249Z,3.8
2022-12-13T07:42:49.854Z,3.89
2022-12-13T07:48:05.365Z,3.89
2022-12-13T07:53:21.186Z,3.83
2022-12-13T07:58:38.232Z,3.83
2022-12-13T08:03:53.108Z,3.95
2022-12-13T08:09:09.358Z,3.95
2022-12-13T08:14:24.797Z,3.92
2022-12-13T08:19:40.337Z,3.92
2022-12-13T08:24:55.863Z,3.92
2022-12-13T08:30:10.702Z,3.92
2022-12-13T08:35:27.875Z,4.13
2022-12-13T08:39:50.471Z,4.13
2022-12-13T08:44:32.853Z,3.87
2022-12-13T08:49:41.326Z,3.87
2022-12-13T08:54:51.144Z,3.97
2022-12-13T08:59:59.555Z,3.97
2022-12-13T09:05:09.380Z,4.03
2022-12-13T09:10:28.184Z,4.03
2022-12-13T09:15:35.412Z,4.32
2022-12-13T09:21:50.158Z,4.32
2022-12-13T09:26:25.160Z,4
2022-12-13T09:30:55.593Z,4
2022-12-13T09:36:04.057Z,3.99
2022-12-13T09:41:30.074Z,3.99
2022-12-13T09:46:24.502Z,4.02
2022-12-13T09:52:22.407Z,4.02
2022-12-13T09:56:41.828Z,4.05
2022-12-13T10:01:51.198Z,4.01
2022-12-13T10:07:00.698Z,4.01
2022-12-13T10:12:09.186Z,4.1
2022-12-13T10:17:18.344Z,4.1
2022-12-13T10:22:27.419Z,4.11
2022-12-13T10:27:35.896Z,4.11
2022-12-13T10:32:44.372Z,3.97
2022-12-13T10:37:53.472Z,3.97
2022-12-13T10:43:01.994Z,4.12
2022-12-13T10:48:11.715Z,4.12
2022-12-13T10:53:24.672Z,4.16
2022-12-13T10:58:29.359Z,4.16
2022-12-13T11:03:39.074Z,4.09
2022-12-13T11:08:47.549Z,4.09
2022-12-13T11:13:57.315Z,4.3
2022-12-13T11:19:07.409Z,4.3
2022-12-13T11:24:23.449Z,4.1
2022-12-13T11:29:25.313Z,4.1
2022-12-13T11:34:34.475Z,4
2022-12-13T11:39:44.853Z,4
2022-12-13T11:44:53.993Z,3.97
2022-12-13T11:50:03.077Z,3.97
2022-12-13T11:55:12.838Z,3.93
2022-12-13T12:00:35.777Z,3.93
2022-12-13T12:05:33.031Z,3.86
2022-12-13T12:10:50.672Z,3.86
2022-12-13T12:15:55.777Z,3.91
2022-12-13T12:21:00.380Z,3.91
2022-12-13T12:26:08.187Z,3.87
2022-12-13T12:28:46.316Z,3.87
2022-12-13T12:33:56.678Z,3.87
2022-12-13T12:39:07.710Z,3.87
2022-12-13T12:44:17.504Z,3.89
2022-12-13T12:49:28.083Z,3.89
2022-12-13T12:54:37.042Z,3.93
2022-12-13T12:59:46.746Z,3.93
2022-12-13T13:04:57.811Z,4.03
2022-12-13T13:10:27.672Z,4.03
2022-12-13T13:15:24.220Z,3.78
2022-12-13T13:20:28.564Z,3.78
2022-12-13T13:26:36.478Z,3.86
2022-12-13T13:30:46.836Z,3.86
2022-12-13T13:35:56.996Z,3.77
2022-12-13T13:41:05.482Z,3.77
2022-12-13T13:46:14.429Z,3.82
2022-12-13T13:51:22.486Z,3.82
2022-12-13T13:56:32.192Z,3.78
2022-12-13T14:01:42.286Z,3.78
2022-12-13T14:06:51.713Z,3.88
2022-12-13T14:12:01.767Z,3.88
2022-12-13T14:17:09.968Z,3.86
2022-12-13T14:22:19.736Z,3.87
2022-12-13T14:27:30.139Z,3.87
2022-12-13T14:32:38.601Z,3.85
2022-12-13T14:37:47.914Z,3.85
2022-12-13T14:42:56.198Z,3.87
2022-12-13T14:48:05.334Z,3.87
2022-12-13T14:53:14.461Z,3.98
2022-12-13T14:58:26.059Z,3.98
2022-12-13T15:03:50.111Z,3.9
2022-12-13T15:08:57.110Z,3.9
2022-12-13T15:14:13.075Z,3.98
2022-12-13T15:19:33.047Z,3.98
2022-12-13T15:24:44.138Z,3.98
2022-12-13T15:29:59.215Z,3.98
2022-12-13T15:35:14.067Z,3.98
2022-12-13T15:40:33.735Z,3.98
2022-12-13T15:45:45.137Z,4
2022-12-13T15:50:59.342Z,4
2022-12-13T15:56:14.869Z,4.01
2022-12-13T16:00:41.694Z,4.01
2022-12-13T16:05:22.144Z,3.99
2022-12-13T16:10:30.588Z,3.99
2022-12-13T16:15:48.680Z,3.91
2022-12-13T16:20:50.453Z,3.91
2022-12-13T16:26:09.499Z,4.02
2022-12-13T16:31:09.629Z,4.02
2022-12-13T16:36:18.799Z,3.94
2022-12-13T16:41:28.456Z,3.94
2022-12-13T16:47:48.274Z,3.8
2022-12-13T16:51:49.655Z,3.8
2022-12-13T16:56:56.544Z,3.84
2022-12-13T17:02:05.226Z,3.84
2022-12-13T17:07:14.742Z,3.81
2022-12-13T17:12:23.863Z,3.81
2022-12-13T17:17:33.652Z,3.81
2022-12-13T17:22:41.566Z,3.83
2022-12-13T17:27:49.939Z,3.83
2022-12-13T17:32:59.108Z,3.81
2022-12-13T17:38:08.197Z,3.81
2022-12-13T17:43:36.092Z,3.87
2022-12-13T17:48:41.624Z,3.87
2022-12-13T17:53:37.520Z,3.83
2022-12-13T17:58:45.945Z,3.83
2022-12-13T18:03:55.084Z,3.88
2022-12-13T18:09:05.486Z,3.88
2022-12-13T18:14:14.604Z,3.85
2022-12-13T18:19:23.058Z,3.85
2022-12-13T18:24:32.203Z,3.89
2022-12-13T18:29:55.795Z,3.89
2022-12-13T18:34:55.000Z,3.89
2022-12-13T18:39:59.817Z,3.89
2022-12-13T18:45:09.982Z,3.85
2022-12-13T18:50:19.729Z,3.85
2022-12-13T18:55:28.840Z,3.95
2022-12-13T19:00:37.994Z,3.95
2022-12-13T19:05:46.436Z,3.98
2022-12-13T19:10:55.547Z,3.98
2022-12-13T19:16:15.028Z,3.95
2022-12-13T19:21:25.368Z,3.95
2022-12-13T19:26:41.462Z,3.96
2022-12-13T19:31:56.389Z,3.96
2022-12-13T19:37:11.212Z,3.98
2022-12-13T19:42:27.987Z,3.98
2022-12-13T19:47:42.960Z,3.96
2022-12-13T19:53:00.093Z,3.96
2022-12-13T19:58:13.266Z,3.95
2022-12-13T20:03:28.533Z,3.95
2022-12-13T20:08:43.028Z,3.98
2022-12-13T20:12:41.481Z,3.98
2022-12-13T20:17:50.312Z,3.97
2022-12-13T20:23:00.037Z,4
2022-12-13T20:28:16.734Z,4
2022-12-13T20:33:18.277Z,3.96
2022-12-13T20:38:28.080Z,3.96
2022-12-13T20:43:36.719Z,3.89
2022-12-13T20:48:45.627Z,3.89
2022-12-13T20:53:54.132Z,4
2022-12-13T20:59:03.903Z,4
2022-12-13T21:04:12.348Z,4.01
2022-12-13T21:09:20.191Z,4.01
2022-12-13T21:14:28.678Z,3.87
2022-12-13T21:19:40.822Z,3.87
2022-12-13T21:24:47.581Z,3.82
2022-12-13T21:29:57.350Z,3.82
2022-12-13T21:35:05.847Z,3.88
2022-12-13T21:40:14.257Z,3.88
2022-12-13T21:45:22.965Z,3.92
2022-12-13T21:50:32.516Z,3.92
2022-12-13T21:55:40.398Z,3.99
2022-12-13T22:00:50.486Z,3.99
2022-12-13T22:05:59.868Z,3.96
2022-12-13T22:11:09.671Z,3.96
2022-12-13T22:16:18.917Z,3.96
2022-12-13T22:21:27.886Z,3.96
2022-12-13T22:26:37.630Z,3.92
2022-12-13T22:31:49.660Z,3.92
2022-12-13T22:36:54.583Z,3.88
2022-12-13T22:42:04.996Z,3.88
2022-12-13T22:47:13.493Z,3.9
2022-12-13T22:52:34.072Z,3.9
2022-12-13T22:57:32.342Z,3.88
2022-12-13T23:02:41.092Z,3.88
2022-12-13T23:07:50.598Z,3.78
2022-12-13T23:13:00.327Z,3.78
2022-12-13T23:18:15.290Z,3.71
2022-12-13T23:23:30.096Z,3.75
2022-12-13T23:28:45.593Z,3.75
2022-12-13T23:34:01.110Z,3.77
2022-12-13T23:39:17.284Z,3.77
2022-12-13T23:44:34.109Z,3.83
2022-12-13T23:49:49.386Z,3.83
2022-12-13T23:55:03.859Z,3.85
